Latest Weather Observations for Lismore Airport

IDN60801

Issued at 7:32 am EDT Monday 30 March 2015 (issued every 30 minutes, with the page automatically refreshed every 10 minutes)

About weather observations | Map of weather stations | Latest weather observations for NSW | Other Formats
Station Details ID: 058214 Name: LISMORE AIRPORT AWS Lat: -28.83 Lon: 153.26 Height: 9.21 m
Data from the previous 72 hours. | See also: Recent months for locations in New South Wales
Date/Time
EDT
Temp
°C
App
Temp
°C
Dew
Point
Rel
Hum
%
Delta-T
°C
Wind Press
QNH
hPa
Press
MSL
hPa
Rain
since 9 am
mm
Dir
 
Spd
km/h
Gust
km/h
Spd
kts
Gust
kts
30/07:30am 15.7 17.6 15.7 100 0.0 CALM 0 4 0 2 1023.0 1023.0 0.0
30/07:00am 15.2 16.9 15.2 100 0.0 CALM 0 0 0 0 1022.8 1022.8 0.0
30/06:30am 14.9 15.4 14.9 100 0.0 N 6 7 3 4 1022.7 1022.7 0.0
30/06:00am 15.7 16.3 15.7 100 0.0 NNE 7 9 4 5 1022.4 1022.4 0.0
30/05:30am 15.7 16.8 15.7 100 0.0 N 4 9 2 5 1022.1 1022.1 0.0
30/05:17am 15.5 17.3 15.5 100 0.0 CALM 0 0 0 0 1022.0 1022.0 0.0
30/05:00am 15.2 16.8 15.0 99 0.1 CALM 0 0 0 0 1022.1 1022.1 0.0
30/04:55am 15.1 16.7 14.9 99 0.1 CALM 0 0 0 0 1022.0 1022.0 0.0
30/04:30am 15.2 16.8 15.0 99 0.1 CALM 0 0 0 0 1021.7 1021.7 0.0
30/04:00am 16.2 17.1 16.2 100 0.0 N 6 9 3 5 1021.9 1021.9 0.0
30/03:30am 16.4 16.8 16.4 100 0.0 NNE 9 11 5 6 1021.7 1021.7 0.0
30/03:00am 16.4 17.7 16.2 99 0.1 N 4 9 2 5 1022.0 1022.0 0.0
30/02:30am 16.6 17.4 16.4 99 0.1 N 7 9 4 5 1021.9 1021.9 0.0
30/02:00am 16.9 16.7 16.7 99 0.1 N 13 13 7 7 1022.2 1022.2 0.0
30/01:30am 17.0 17.6 16.8 99 0.1 N 9 11 5 6 1022.4 1022.4 0.0
30/01:00am 17.2 17.1 16.9 98 0.2 N 13 15 7 8 1022.7 1022.7 0.0
30/12:30am 17.3 17.5 16.8 97 0.3 N 11 13 6 7 1022.6 1022.6 0.0
30/12:00am 17.5 17.6 16.4 93 0.7 N 11 13 6 7 1022.7 1022.7 0.0
 
Date/Time
EDT
Temp
°C
App
Temp
°C
Dew
Point
Rel
Hum
%
Delta-T
°C
Wind Press
QNH
hPa
Press
MSL
hPa
Rain
since 9 am
mm
Dir
 
Spd
km/h
Gust
km/h
Spd
kts
Gust
kts
29/11:30pm 18.2 18.4 16.7 91 0.9 N 11 13 6 7 1022.6 1022.6 0.0
29/11:00pm 18.4 18.4 17.1 92 0.8 N 13 13 7 7 1022.7 1022.7 0.0
29/10:30pm 18.3 18.6 17.0 92 0.8 N 11 13 6 7 1022.8 1022.8 0.0
29/10:00pm 18.8 19.1 17.1 90 1.0 N 11 13 6 7 1022.9 1022.9 0.0
29/09:30pm 19.6 20.2 16.8 84 1.7 N 9 13 5 7 1022.9 1022.9 0.0
29/09:00pm 21.0 20.8 16.8 77 2.5 NNE 13 17 7 9 1022.5 1022.5 0.0
29/08:30pm 21.6 21.1 16.8 74 2.9 NNE 15 20 8 11 1022.2 1022.2 0.0
29/08:00pm 22.0 21.5 16.9 73 3.1 NE 15 20 8 11 1022.0 1022.0 0.0
29/07:30pm 22.4 21.3 17.3 73 3.1 NE 19 24 10 13 1021.5 1021.5 0.0
29/07:00pm 23.0 21.8 17.5 71 3.4 NE 20 28 11 15 1021.2 1021.2 0.0
29/06:30pm 23.8 22.1 17.3 67 4.0 NE 22 33 12 18 1020.8 1020.8 0.0
29/06:00pm 24.4 22.5 17.6 66 4.2 NE 24 35 13 19 1020.5 1020.5 0.0
29/05:30pm 25.4 24.5 18.3 65 4.5 NE 20 28 11 15 1020.4 1020.4 0.0
29/05:00pm 26.0 25.4 18.4 63 4.8 NE 19 28 10 15 1020.2 1020.2 0.0
29/04:30pm 26.3 25.1 18.4 61 5.0 ENE 22 30 12 16 1020.2 1020.2 0.0
29/04:00pm 26.7 27.0 18.8 62 5.0 ENE 15 26 8 14 1020.2 1020.2 0.0
29/03:30pm 27.4 27.9 19.2 61 5.3 SE 15 20 8 11 1020.6 1020.6 0.0
29/03:00pm 26.0 26.6 18.7 64 4.6 ESE 13 17 7 9 1020.6 1020.6 0.0
29/02:30pm 27.0 28.1 18.8 60 5.3 ESE 11 15 6 8 1020.7 1020.7 0.0
29/02:00pm 27.7 28.7 17.8 54 6.2 E 9 17 5 9 1021.3 1021.3 0.0
29/01:30pm 28.2 29.7 18.0 54 6.5 N 7 13 4 7 1021.7 1021.7 0.0
29/01:00pm 28.0 30.5 20.3 63 5.0 N 7 13 4 7 1022.1 1022.1 0.0
29/12:30pm 26.7 28.7 19.1 63 4.9 NNW 7 13 4 7 1022.5 1022.5 0.0
29/12:00pm 26.5 29.6 19.6 66 4.5 NE 2 9 1 5 1023.2 1023.2 0.0
29/11:30am 26.0 28.6 18.4 63 4.8 NNE 2 17 1 9 1023.6 1023.6 0.0
29/11:00am 25.2 27.0 18.4 66 4.3 SSE 6 15 3 8 1023.7 1023.7 0.0
29/10:30am 24.4 26.4 18.8 71 3.6 WSW 6 11 3 6 1023.9 1023.9 0.0
29/10:00am 23.2 25.5 18.5 75 2.9 SE 4 9 2 5 1024.0 1024.0 0.0
29/09:30am 22.5 25.4 18.3 77 2.6 CALM 0 6 0 3 1023.8 1023.8 0.0
29/09:00am 21.7 25.1 19.4 87 1.5 CALM 0 0 0 0 1023.5 1023.5 0.0
29/08:30am 19.8 21.6 19.6 99 0.1 NNW 9 13 5 7 1023.0 1023.0 0.0
29/08:00am 19.2 21.4 19.2 100 0.0 NNW 6 17 3 9 1022.4 1022.4 0.0
29/07:30am 17.7 20.4 17.7 100 0.0 CALM 0 0 0 0 1022.3 1022.3 0.0
29/07:00am 18.1 21.0 18.1 100 0.0 CALM 0 0 0 0 1022.0 1022.0 0.0
29/06:30am 18.2 21.1 18.2 100 0.0 CALM 0 0 0 0 1021.6 1021.6 0.0
29/06:00am 17.8 20.5 17.8 100 0.0 CALM 0 0 0 0 1021.2 1021.2 0.0
29/05:30am 17.6 20.2 17.4 99 0.1 CALM 0 0 0 0 1020.9 1020.9 0.0
29/05:00am 18.3 21.2 18.1 99 0.1 CALM 0 0 0 0 1020.8 1020.8 0.0
29/04:30am 18.8 21.5 18.6 99 0.1 S 2 7 1 4 1020.7 1020.7 0.0
29/04:00am 18.9 20.7 18.7 99 0.1 SSE 7 9 4 5 1020.5 1020.5 0.0
29/03:30am 18.8 21.9 18.6 99 0.1 CALM 0 0 0 0 1020.6 1020.6 0.0
29/03:00am 19.3 22.6 19.1 99 0.1 CALM 0 0 0 0 1020.7 1020.7 0.0
29/02:30am 19.5 22.9 19.3 99 0.1 CALM 0 0 0 0 1021.0 1021.0 0.0
29/02:00am 19.4 22.7 19.2 99 0.1 CALM 0 0 0 0 1021.2 1021.2 0.0
29/01:30am 19.2 22.4 18.9 98 0.2 CALM 0 0 0 0 1021.3 1021.3 0.0
29/01:00am 19.6 22.8 18.8 95 0.5 CALM 0 0 0 0 1021.4 1021.4 0.0
29/12:30am 19.9 23.1 18.9 94 0.6 CALM 0 6 0 3 1021.7 1021.7 0.0
29/12:00am 20.1 22.1 19.1 94 0.6 ESE 7 9 4 5 1021.9 1021.9 0.0
 
Date/Time
EDT
Temp
°C
App
Temp
°C
Dew
Point
Rel
Hum
%
Delta-T
°C
Wind Press
QNH
hPa
Press
MSL
hPa
Rain
since 9 am
mm
Dir
 
Spd
km/h
Gust
km/h
Spd
kts
Gust
kts
28/11:30pm 20.2 23.2 18.5 90 1.1 CALM 0 6 0 3 1022.2 1022.2 0.0
28/11:00pm 20.6 23.8 18.9 90 1.1 CALM 0 0 0 0 1021.8 1021.8 0.0
28/10:30pm 21.4 25.1 19.9 91 1.0 CALM 0 0 0 0 1021.8 1021.8 0.0
28/10:00pm 21.3 24.6 19.0 87 1.4 CALM 0 0 0 0 1021.9 1021.9 0.0
28/09:30pm 21.0 24.2 18.8 87 1.4 CALM 0 0 0 0 1021.7 1021.7 0.0
28/09:00pm 21.7 24.8 18.7 83 1.9 CALM 0 0 0 0 1021.3 1021.3 0.0
28/08:30pm 22.0 25.2 18.8 82 2.0 CALM 0 0 0 0 1021.0 1021.0 0.0
28/08:00pm 23.1 24.6 18.0 73 3.2 E 7 11 4 6 1020.8 1020.8 0.0
28/07:30pm 22.6 24.1 17.7 74 3.0 E 6 9 3 5 1020.1 1020.1 0.0
28/07:00pm 23.1 24.1 17.8 72 3.3 E 9 19 5 10 1019.9 1019.9 0.0
28/06:30pm 23.8 23.8 18.0 70 3.6 ENE 15 19 8 10 1019.7 1019.7 0.0
28/06:00pm 24.3 25.3 19.4 74 3.1 ESE 13 22 7 12 1019.6 1019.6 0.0
28/05:30pm 24.2 24.8 19.5 75 3.0 ESE 15 19 8 10 1019.4 1019.4 0.0
28/05:00pm 24.8 24.9 19.2 71 3.6 ESE 17 20 9 11 1019.3 1019.3 0.0
28/04:30pm 25.1 24.5 18.5 67 4.2 ESE 19 24 10 13 1019.3 1019.3 0.0
28/04:00pm 25.3 25.8 19.2 69 3.9 ESE 15 22 8 12 1019.3 1019.3 0.0
28/03:30pm 25.9 25.7 18.6 64 4.6 ESE 17 22 9 12 1019.2 1019.2 0.0
28/03:00pm 27.1 27.7 19.4 62 5.0 E 15 20 8 11 1019.3 1019.3 0.0
28/02:30pm 26.6 27.2 18.7 62 5.0 SE 13 19 7 10 1019.7 1019.7 0.0
28/02:00pm 27.3 29.0 20.1 64 4.7 ESE 11 15 6 8 1019.9 1019.9 0.0
28/01:30pm 26.4 26.9 19.3 65 4.6 ESE 15 19 8 10 1020.2 1020.2 0.0
28/01:00pm 27.0 28.5 18.8 60 5.2 SSW 9 15 5 8 1020.7 1020.7 0.0
28/12:30pm 27.0 29.0 19.1 62 5.1 SE 7 13 4 7 1021.2 1021.2 0.0
28/12:00pm 26.7 28.4 19.3 64 4.8 SSE 9 19 5 10 1021.5 1021.5 0.0
28/11:30am 25.4 26.4 18.6 66 4.3 SSE 11 19 6 10 1021.7 1021.7 0.0
28/11:00am 24.4 26.0 18.3 69 3.8 SSE 7 11 4 6 1022.0 1022.0 0.0
28/10:30am 23.7 25.4 18.6 73 3.2 SE 7 9 4 5 1022.0 1022.0 0.0
28/10:00am 22.8 25.6 17.9 74 3.0 CALM 0 0 0 0 1022.1 1022.1 0.0
28/09:30am 22.2 24.1 17.6 75 2.8 N 4 11 2 6 1022.0 1022.0 0.0
28/09:00am 21.5 23.7 16.5 73 3.0 CALM 0 0 0 0 1021.7 1021.7 0.2
28/08:30am 20.2 23.2 18.5 90 1.1 CALM 0 7 0 4 1021.5 1021.5 0.2
28/08:00am 19.1 22.4 19.1 100 0.0 CALM 0 0 0 0 1020.8 1020.8 0.2
28/07:30am 17.6 20.2 17.6 100 0.0 CALM 0 0 0 0 1020.4 1020.4 0.2
28/07:00am 17.1 19.5 17.1 100 0.0 CALM 0 0 0 0 1020.1 1020.1 0.2
28/06:30am 17.1 19.5 16.9 99 0.1 CALM 0 0 0 0 1019.8 1019.8 0.2
28/06:00am 17.1 19.5 16.9 99 0.1 CALM 0 0 0 0 1019.5 1019.5 0.2
28/05:30am 17.2 19.6 17.0 99 0.1 CALM 0 0 0 0 1019.4 1019.4 0.2
28/05:00am 17.6 20.2 17.4 99 0.1 CALM 0 0 0 0 1019.1 1019.1 0.2
28/04:30am 17.6 20.2 17.4 99 0.1 CALM 0 0 0 0 1019.0 1019.0 0.2
28/04:00am 18.2 21.0 18.0 99 0.1 CALM 0 0 0 0 1018.8 1018.8 0.2
28/03:30am 18.5 21.5 18.5 100 0.0 CALM 0 0 0 0 1018.9 1018.9 0.2
28/03:00am 18.3 21.2 18.3 100 0.0 CALM 0 0 0 0 1019.0 1019.0 0.2
28/02:30am 18.2 21.1 18.2 100 0.0 CALM 0 0 0 0 1019.0 1019.0 0.2
28/02:00am 18.3 21.2 18.1 99 0.1 CALM 0 0 0 0 1019.1 1019.1 0.2
28/01:30am 18.4 21.3 18.2 99 0.1 CALM 0 0 0 0 1019.3 1019.3 0.2
28/01:00am 18.5 21.4 18.3 99 0.1 CALM 0 0 0 0 1019.3 1019.3 0.2
28/12:30am 19.0 22.2 18.8 99 0.1 CALM 0 0 0 0 1019.5 1019.5 0.2
28/12:00am 18.6 20.4 18.4 99 0.1 SE 6 9 3 5 1019.7 1019.7 0.2
 
Date/Time
EDT
Temp
°C
App
Temp
°C
Dew
Point
Rel
Hum
%
Delta-T
°C
Wind Press
QNH
hPa
Press
MSL
hPa
Rain
since 9 am
mm
Dir
 
Spd
km/h
Gust
km/h
Spd
kts
Gust
kts
27/11:30pm 19.5 22.8 19.2 98 0.2 CALM 0 6 0 3 1019.7 1019.7 0.2
27/11:00pm 20.2 23.7 19.5 96 0.4 CALM 0 0 0 0 1020.0 1020.0 0.2
27/10:30pm 20.5 24.1 19.7 95 0.5 CALM 0 0 0 0 1020.0 1020.0 0.2
27/10:00pm 20.7 23.4 20.2 97 0.3 ESE 6 7 3 4 1019.9 1019.9 0.2
27/09:30pm 20.4 23.0 20.1 98 0.2 SE 6 7 3 4 1019.9 1019.9 0.2
27/09:00pm 20.4 24.0 19.7 96 0.4 CALM 0 0 0 0 1019.7 1019.7 0.2
27/08:30pm 20.3 23.7 19.3 94 0.6 CALM 0 0 0 0 1019.5 1019.5 0.2
27/08:00pm 20.5 23.8 19.2 92 0.8 CALM 0 0 0 0 1019.0 1019.0 0.2
27/07:30pm 21.2 22.8 19.1 88 1.3 S 9 9 5 5 1018.7 1018.7 0.2
27/07:00pm 21.8 23.1 19.2 85 1.6 SSE 11 15 6 8 1018.3 1018.3 0.2
27/06:30pm 23.3 24.2 19.2 78 2.6 SSE 13 19 7 10 1018.2 1018.2 0.2
27/06:00pm 24.2 24.4 19.3 74 3.1 SE 17 22 9 12 1017.9 1017.9 0.2
27/05:30pm 24.6 23.8 19.2 72 3.5 SSE 22 28 12 15 1017.6 1017.6 0.2
27/05:00pm 24.8 24.3 19.0 70 3.7 SE 20 30 11 16 1017.4 1017.4 0.2
27/04:30pm 25.4 24.6 19.3 69 3.9 SE 22 32 12 17 1017.2 1017.2 0.2
27/04:00pm 25.7 25.3 19.3 67 4.1 SE 20 28 11 15 1017.2 1017.2 0.2
27/03:30pm 26.1 26.2 19.2 65 4.4 SE 17 26 9 14 1017.4 1017.4 0.2
27/03:00pm 25.3 24.5 19.2 69 3.9 SE 22 32 12 17 1017.6 1017.6 0.2
27/02:30pm 26.6 26.8 20.2 68 4.2 SE 19 28 10 15 1017.7 1017.7 0.2
27/02:00pm 25.8 25.9 19.9 70 3.8 SE 19 28 10 15 1018.1 1018.1 0.2
27/01:30pm 26.6 26.6 20.2 68 4.2 SSE 20 30 11 16 1018.3 1018.3 0.2
27/01:00pm 25.5 25.1 19.4 69 3.9 SSE 20 30 11 16 1018.7 1018.7 0.2
27/12:30pm 26.5 25.8 19.4 65 4.6 SSE 22 30 12 16 1019.1 1019.1 0.2
27/12:00pm 26.0 25.3 19.4 67 4.2 SSE 22 30 12 16 1019.6 1019.6 0.2
27/11:30am 25.3 24.6 19.4 70 3.8 SSE 22 32 12 17 1019.6 1019.6 0.2
27/11:00am 25.9 26.1 19.3 67 4.2 S 17 24 9 13 1019.7 1019.7 0.2
27/10:30am 25.3 24.4 19.0 68 4.0 S 22 30 12 16 1019.8 1019.8 0.2
27/10:00am 24.9 25.0 19.9 74 3.2 S 19 26 10 14 1019.6 1019.6 0.0
27/09:30am 23.9 25.2 20.2 80 2.4 S 13 22 7 12 1019.5 1019.5 0.0
27/09:00am 22.3 25.9 22.1 99 0.1 SW 6 11 3 6 1019.4 1019.4 -
27/08:30am 21.7 25.1 21.7 100 0.0 N 6 7 3 4 1019.1 1019.1 -
27/08:24am 21.6 25.0 21.6 100 0.0 NNW 6 7 3 4 1019.0 1019.0 -
27/08:00am 20.9 23.3 20.9 100 0.0 NNW 9 13 5 7 1018.6 1018.6 -
27/07:38am 20.1 22.2 20.1 100 0.0 N 9 11 5 6 1018.2 1018.2 -

Other Formats:

Comma delimited format used in spreadsheet applications
http://www.bom.gov.au/fwo/IDN60801/IDN60801.94572.axf

JavaScript Object Notation format (JSON) in row-major order
http://www.bom.gov.au/fwo/IDN60801/IDN60801.94572.json